Fox Lake, Illinois
Current Conditions -  °F | °C
As of 8:47 AM on Thursday 27 Nov 2014 (Local Time) from KUGN Reporting Station
Overcast Overcast  
Wind Chill: 11°   Ceiling: 1300
Heat Index: 23°   Visibility: 10mi
Dew Point: 18°   Wind: 13mph
Humidity: 81%   Direction: 290°WNW
Pressure: 30.3"   Gusts: 20mph
Location:  42.39°N, 88.16°W
Report Text: KUGN 271447Z 29011G17KT 10SM BKN013 OVC055 M05/M08 A3030 RMK AO2 T10501078 $
Loading
Personal Weather Stations






























Interactive Weather Map New forecast layout! Learn more

10-Day Weather Forecast

Advertisements
Track Severe Weather on mobile